Barrett, Minnesota
Current Conditions -  °F | °C
As of 10:53 PM on Saturday 22 Nov 2014 (Local Time) from KAXN Reporting Station
Haze Haze  
Wind Chill: 25°   Ceiling: 200
Heat Index: 34°   Visibility: 1mi
Dew Point: 34°   Wind: 13mph
Humidity: 100%   Direction: 150°SSE
Pressure: 29.4"   Gusts: NA
Location:  45.91°N, 95.89°W
Report Text: KAXN 230453Z AUTO 15011KT 1SM BR VV002 01/01 A2940 RMK AO2 SLP970 T00110011
Loading
Personal Weather Stations






























Interactive Weather Map New forecast layout! Learn more

10-Day Weather Forecast

Advertisements
Track Severe Weather on mobile